メインページ
METAR-TAF:

METAR-TAF

空港 :

ハト国際空港

キュラソー島, オランダ領アンティル

緯度: 12-12N, 経度: 068-58W, 海抜: 9m

現時点の気象観測

当レポートは48分前の09:00(UTC)に作成
東/南東の風 11kt
気温 27°C
湿度 79%
気圧 1013 hPa
視程10km以上

METAR: TNCC 200900Z 11011KT 9999 NSC 27/23 Q1013 NOSIG

時間: 05:48 (09:48 UTC)

予報

予報は20日の 06時(UTC)から 21日の 06時(UTC)まで有効
の風 14kt
視程10km以上
高度2000ftの雲は散在している
確率 30% :
20日の 06時(UTC)から 20日の 16時(UTC)まで一時的に
視程: 8000m
高度1500ftの千切れ雲あり
弱いにわか雨

TAF: TNCC 2006/2106 10014KT 9999 SCT020 PROB30 TEMPO 2006/2016 8000 -SHRA BKN015

4,000以上の空港の気象観測と天気予報(METAR報とTAF報)

利用可能な観測所は地図上に黄色い丸と赤い丸で示す。

丸の上にカーソルを重ねると観測所名を参照できる。

次にクリックすると気象観測と天気予報を参照できる。

マップの切り替え:黒色「×」印の緑ボタンをクリックして拡大、「-」印の緑ボタンをクリックして縮小、緑色の三角印をクリックして隣りの地図に切り替え


METAR-TAF: